Time;durP1;ratioP1;P1;durP2;ratioP2;P2;SDS_P1;SDS_P2;PMS_P1;PMS_P2;Temp;Humidity;BMP_temperature;BMP_pressure;BME280_temperature;BME280_humidity;BME280_pressure;Samples;Min_cycle;Max_cycle;Signal;HPM_P1;HPM_P2
2022/11/13 00:00:31;;;;;;;48.72;27.85;;;;;;;7.84;100.00;102634.22;5048080;28;20110;-42
2022/11/13 00:02:57;;;;;;;49.30;27.65;;;;;;;7.84;100.00;102636.91;5044790;28;20034;-43
2022/11/13 00:05:22;;;;;;;49.50;28.45;;;;;;;7.82;100.00;102638.84;5045305;28;20033;-43
2022/11/13 00:07:47;;;;;;;51.15;27.48;;;;;;;7.80;100.00;102638.13;5038789;28;20132;-43
2022/11/13 00:10:13;;;;;;;46.65;28.38;;;;;;;7.75;100.00;102635.81;5044645;28;20067;-42
2022/11/13 00:12:38;;;;;;;46.60;28.75;;;;;;;7.72;100.00;102641.41;5049132;28;20045;-42
2022/11/13 00:15:04;;;;;;;53.08;29.85;;;;;;;7.74;100.00;102634.13;5046863;28;20021;-43
2022/11/13 00:17:29;;;;;;;49.85;29.38;;;;;;;7.73;100.00;102636.91;5039528;28;20566;-43
2022/11/13 00:19:55;;;;;;;50.33;29.45;;;;;;;7.74;100.00;102638.59;5047274;28;20438;-43
2022/11/13 00:22:20;;;;;;;47.30;28.20;;;;;;;7.74;100.00;102634.13;5048903;28;20033;-43
2022/11/13 00:24:45;;;;;;;54.75;29.85;;;;;;;7.72;100.00;102628.00;5034675;28;20513;-43
2022/11/13 00:27:11;;;;;;;52.60;30.35;;;;;;;7.69;100.00;102618.38;5025270;28;20424;-43
2022/11/13 00:29:36;;;;;;;56.53;31.38;;;;;;;7.70;100.00;102622.75;5050203;28;20036;-43
2022/11/13 00:32:02;;;;;;;52.45;30.60;;;;;;;7.73;100.00;102623.50;5040542;28;20120;-42
2022/11/13 00:34:27;;;;;;;53.38;30.15;;;;;;;7.70;100.00;102627.28;5046938;28;20035;-42
2022/11/13 00:36:52;;;;;;;57.25;30.35;;;;;;;7.67;100.00;102614.97;5050372;28;20055;-42
2022/11/13 00:39:18;;;;;;;51.97;30.48;;;;;;;7.66;100.00;102607.91;5048154;28;20022;-42
2022/11/13 00:41:43;;;;;;;55.85;30.63;;;;;;;7.65;100.00;102608.88;5039921;28;20379;-42
2022/11/13 00:44:08;;;;;;;58.55;31.63;;;;;;;7.67;100.00;102606.94;5049096;28;20582;-42
2022/11/13 00:46:34;;;;;;;54.33;31.00;;;;;;;7.68;100.00;102611.28;5041497;28;20511;-43
2022/11/13 00:48:59;;;;;;;54.80;30.65;;;;;;;7.67;100.00;102606.06;5048047;28;20101;-43
2022/11/13 00:51:24;;;;;;;55.85;31.05;;;;;;;7.68;100.00;102608.63;5051754;28;20110;-43
2022/11/13 00:53:50;;;;;;;56.22;31.63;;;;;;;7.72;100.00;102603.03;5042897;28;20033;-42
2022/11/13 00:56:15;;;;;;;56.50;31.23;;;;;;;7.70;100.00;102601.31;5046423;28;20017;-42
2022/11/13 00:58:41;;;;;;;52.17;29.85;;;;;;;7.69;100.00;102599.63;5045158;28;20035;-44
2022/11/13 01:01:08;;;;;;;55.65;30.63;;;;;;;7.66;100.00;102589.16;5052606;28;20044;-42
2022/11/13 01:03:34;;;;;;;53.28;29.92;;;;;;;7.64;100.00;102588.41;5052682;28;20036;-42
2022/11/13 01:06:18;;;;;;;53.97;29.02;;;;;;;7.60;100.00;102584.25;5049561;28;20317;-43
2022/11/13 01:08:43;;;;;;;48.30;30.15;;;;;;;7.57;100.00;102583.66;5047321;28;20035;-42
2022/11/13 01:11:11;;;;;;;51.65;29.70;;;;;;;7.55;100.00;102586.44;5044588;28;20029;-42
2022/11/13 01:13:38;;;;;;;48.45;30.20;;;;;;;7.54;100.00;102589.25;5032714;28;20049;-43
2022/11/13 01:16:06;;;;;;;51.17;29.13;;;;;;;7.52;100.00;102589.34;5036913;28;20167;-42
2022/11/13 01:18:31;;;;;;;52.70;29.45;;;;;;;7.50;100.00;102588.63;5036368;28;20033;-42
2022/11/13 01:21:11;;;;;;;55.08;31.40;;;;;;;7.50;100.00;102585.09;5052337;28;20116;-43
2022/11/13 01:23:37;;;;;;;49.40;30.65;;;;;;;7.49;100.00;102584.25;5042829;28;20479;-42
2022/11/13 01:26:24;;;;;;;54.63;30.63;;;;;;;7.51;100.00;102587.66;5035065;28;20035;-42
2022/11/13 01:28:49;;;;;;;56.75;30.05;;;;;;;7.43;100.00;102579.38;5037767;28;20037;-42
2022/11/13 01:31:21;;;;;;;51.05;29.85;;;;;;;7.33;100.00;102579.22;5045119;28;20441;-42
2022/11/13 01:33:47;;;;;;;52.10;30.83;;;;;;;7.31;100.00;102582.97;5064552;28;20037;-43
2022/11/13 01:36:18;;;;;;;51.28;31.60;;;;;;;7.31;100.00;102573.13;5045575;28;20025;-43
2022/11/13 01:38:44;;;;;;;49.95;31.27;;;;;;;7.28;100.00;102580.53;5042344;28;20082;-43
2022/11/13 01:41:30;;;;;;;51.25;32.10;;;;;;;7.26;100.00;102578.81;5051295;28;20037;-43
2022/11/13 01:43:57;;;;;;;57.17;32.90;;;;;;;7.25;100.00;102578.94;5039173;28;20025;-42
2022/11/13 01:46:30;;;;;;;55.67;32.38;;;;;;;7.26;100.00;102569.94;5041182;28;20035;-43
2022/11/13 01:49:09;;;;;;;53.97;32.08;;;;;;;7.24;100.00;102582.59;5037844;28;20036;-43
2022/11/13 01:52:02;;;;;;;52.15;31.92;;;;;;;7.22;100.00;102573.84;5044268;28;20071;-42
2022/11/13 01:54:43;;;;;;;50.92;30.75;;;;;;;7.20;100.00;102571.25;5032326;28;20149;-43
2022/11/13 01:57:08;;;;;;;50.22;31.13;;;;;;;7.21;100.00;102577.47;5044066;28;20060;-43
2022/11/13 01:59:38;;;;;;;50.67;30.83;;;;;;;7.17;100.00;102574.19;5047484;28;20121;-42
2022/11/13 02:02:04;;;;;;;52.67;31.23;;;;;;;7.16;100.00;102569.81;5037369;28;20059;-42
2022/11/13 02:04:30;;;;;;;55.33;32.22;;;;;;;7.17;100.00;102571.50;5027255;28;20476;-42
2022/11/13 02:06:57;;;;;;;46.78;30.60;;;;;;;7.13;100.00;102567.34;5020526;28;20037;-43
2022/11/13 02:09:25;;;;;;;49.07;28.90;;;;;;;7.12;100.00;102560.28;5049842;28;20061;-43
2022/11/13 02:11:51;;;;;;;51.65;30.30;;;;;;;7.11;100.00;102547.00;5035583;28;20024;-42
2022/11/13 02:14:17;;;;;;;52.53;29.60;;;;;;;7.11;100.00;102550.56;5047342;28;20044;-43
2022/11/13 02:16:45;;;;;;;52.63;30.80;;;;;;;7.08;100.00;102541.88;5038045;28;20021;-43
2022/11/13 02:19:36;;;;;;;50.63;30.67;;;;;;;7.07;100.00;102543.72;5049205;28;20039;-42
2022/11/13 02:22:16;;;;;;;46.35;28.95;;;;;;;7.04;100.00;102549.31;5050525;28;20032;-43
2022/11/13 02:24:45;;;;;;;49.05;29.40;;;;;;;7.01;100.00;102541.53;5041109;28;20025;-43
2022/11/13 02:27:30;;;;;;;49.88;29.67;;;;;;;6.99;100.00;102540.78;5041370;28;20033;-42
2022/11/13 02:29:55;;;;;;;49.50;29.63;;;;;;;6.95;100.00;102550.00;5028297;28;20025;-42
2022/11/13 02:32:21;;;;;;;50.53;28.08;;;;;;;6.93;100.00;102536.75;5037501;28;20496;-43
2022/11/13 02:34:46;;;;;;;47.72;28.27;;;;;;;6.90;100.00;102544.13;5045418;28;20507;-43
2022/11/13 02:37:11;;;;;;;44.63;26.98;;;;;;;6.89;100.00;102537.09;5040319;28;20472;-42
2022/11/13 02:39:37;;;;;;;43.70;26.75;;;;;;;6.85;100.00;102528.44;5041142;28;20025;-42
2022/11/13 02:42:02;;;;;;;44.60;27.10;;;;;;;6.84;100.00;102526.72;5035335;28;20155;-42
2022/11/13 02:44:27;;;;;;;47.45;28.65;;;;;;;6.84;100.00;102512.50;5049458;28;20060;-43
2022/11/13 02:46:53;;;;;;;45.72;25.83;;;;;;;6.85;100.00;102524.94;5041902;28;20044;-43
2022/11/13 02:49:18;;;;;;;45.22;27.52;;;;;;;6.88;100.00;102532.72;5047990;28;20025;-42
2022/11/13 02:51:43;;;;;;;41.65;26.25;;;;;;;6.82;100.00;102526.84;5041568;28;20393;-42
2022/11/13 02:54:09;;;;;;;41.33;26.27;;;;;;;6.84;100.00;102517.84;5031399;28;20025;-42
2022/11/13 02:56:34;;;;;;;41.25;24.65;;;;;;;6.82;100.00;102515.31;5040524;28;20033;-42
2022/11/13 02:58:59;;;;;;;37.30;22.35;;;;;;;6.81;100.00;102514.44;5030518;28;20129;-42
2022/11/13 03:01:25;;;;;;;39.45;23.02;;;;;;;6.84;100.00;102499.97;5050291;28;20032;-42
2022/11/13 03:03:50;;;;;;;36.63;22.15;;;;;;;6.87;100.00;102505.06;5050460;28;20039;-42
2022/11/13 03:06:16;;;;;;;33.95;21.67;;;;;;;6.93;100.00;102493.06;5042245;28;20505;-43
2022/11/13 03:08:41;;;;;;;34.38;21.38;;;;;;;6.93;100.00;102487.72;5035891;28;20710;-43
2022/11/13 03:11:08;;;;;;;37.88;22.10;;;;;;;6.92;100.00;102491.34;5034594;28;20435;-43
2022/11/13 03:13:33;;;;;;;34.10;20.65;;;;;;;6.94;100.00;102489.41;5038873;28;20117;-42
2022/11/13 03:16:13;;;;;;;31.83;20.27;;;;;;;6.96;100.00;102487.47;5034586;28;20384;-42
2022/11/13 03:18:40;;;;;;;31.13;19.50;;;;;;;6.98;100.00;102493.56;5040918;28;20040;-43
2022/11/13 03:21:11;;;;;;;31.25;18.70;;;;;;;6.97;100.00;102492.69;5032874;28;20519;-43
2022/11/13 03:23:38;;;;;;;31.27;20.17;;;;;;;6.98;100.00;102490.91;5046089;28;20091;-42
2022/11/13 03:26:05;;;;;;;29.88;18.27;;;;;;;7.03;100.00;102489.56;5029206;28;21512;-43
2022/11/13 03:28:32;;;;;;;28.33;17.83;;;;;;;7.09;100.00;102480.22;5030882;28;20049;-43
2022/11/13 03:30:57;;;;;;;27.95;17.52;;;;;;;7.13;100.00;102476.31;5046130;28;20120;-42
2022/11/13 03:33:23;;;;;;;32.22;17.77;;;;;;;7.14;100.00;102480.72;5050369;28;20108;-42
2022/11/13 03:35:48;;;;;;;29.00;17.90;;;;;;;7.12;100.00;102471.94;5038070;28;20036;-43
2022/11/13 03:38:14;;;;;;;30.48;17.77;;;;;;;7.13;100.00;102476.31;5045180;28;20510;-43
2022/11/13 03:40:40;;;;;;;25.48;16.23;;;;;;;7.09;100.00;102472.19;5025337;28;20033;-43
2022/11/13 03:43:06;;;;;;;29.42;17.60;;;;;;;7.13;100.00;102484.34;5030087;28;20103;-42
2022/11/13 03:45:31;;;;;;;25.92;15.75;;;;;;;7.12;100.00;102481.78;5045331;28;20403;-42
2022/11/13 03:47:56;;;;;;;28.30;16.17;;;;;;;7.09;100.00;102484.72;5037943;28;20545;-43
2022/11/13 03:50:22;;;;;;;24.92;15.85;;;;;;;7.09;100.00;102477.53;5042467;28;20040;-44
2022/11/13 03:52:47;;;;;;;26.70;16.35;;;;;;;7.00;100.00;102472.88;5044729;28;20033;-42
2022/11/13 03:55:12;;;;;;;27.48;16.48;;;;;;;6.96;100.00;102471.41;5029295;28;20061;-43
2022/11/13 03:57:38;;;;;;;24.60;15.65;;;;;;;6.99;100.00;102473.84;5038059;28;20029;-43
2022/11/13 04:00:04;;;;;;;22.90;15.70;;;;;;;6.91;100.00;102468.25;5046141;28;20036;-43
2022/11/13 04:02:29;;;;;;;27.42;15.52;;;;;;;6.92;100.00;102460.06;5049144;28;20108;-42
2022/11/13 04:04:56;;;;;;;24.83;14.55;;;;;;;6.98;100.00;102464.13;5040220;28;20112;-43
2022/11/13 04:07:21;;;;;;;25.13;15.55;;;;;;;6.97;100.00;102468.59;5023755;28;20098;-42
2022/11/13 04:09:47;;;;;;;25.40;14.80;;;;;;;6.93;100.00;102469.84;5027288;28;20440;-42
2022/11/13 04:12:12;;;;;;;25.38;15.63;;;;;;;6.93;100.00;102461.81;5031313;28;20040;-43
2022/11/13 04:14:37;;;;;;;25.63;14.63;;;;;;;6.90;100.00;102466.53;5047308;28;20049;-43
2022/11/13 04:17:02;;;;;;;23.92;14.25;;;;;;;6.88;100.00;102463.97;5041915;28;20025;-42
2022/11/13 04:19:28;;;;;;;22.15;14.82;;;;;;;6.86;100.00;102463.25;5047291;28;20063;-42
2022/11/13 04:21:53;;;;;;;24.98;14.40;;;;;;;6.86;100.00;102463.25;5047714;28;20033;-42
2022/11/13 04:24:18;;;;;;;24.30;13.77;;;;;;;6.80;100.00;102461.03;5040791;28;20037;-43
2022/11/13 04:26:44;;;;;;;22.70;13.85;;;;;;;6.75;100.00;102465.88;5044048;28;20020;-42
2022/11/13 04:29:09;;;;;;;26.25;14.52;;;;;;;6.71;100.00;102454.56;5035733;28;20028;-43
2022/11/13 04:31:34;;;;;;;26.52;15.07;;;;;;;6.65;100.00;102463.06;5021453;28;20080;-43
2022/11/13 04:34:00;;;;;;;22.58;13.77;;;;;;;6.69;100.00;102459.19;5036417;28;20029;-42
2022/11/13 04:36:25;;;;;;;24.80;15.38;;;;;;;6.69;100.00;102453.84;5047342;28;20074;-42
2022/11/13 04:38:50;;;;;;;22.13;13.93;;;;;;;6.68;100.00;102454.78;5036075;28;20022;-43
2022/11/13 04:43:59;;;;;;;21.70;13.40;;;;;;;6.71;100.00;102443.00;5034389;28;20376;-42
2022/11/13 04:46:25;;;;;;;21.98;13.45;;;;;;;6.72;100.00;102431.34;5028801;28;20022;-43
2022/11/13 04:48:50;;;;;;;21.52;14.20;;;;;;;6.76;100.00;102443.50;5029547;28;20034;-43
2022/11/13 04:51:15;;;;;;;22.17;13.45;;;;;;;6.71;100.00;102435.81;5042712;28;20033;-42
2022/11/13 04:53:41;;;;;;;22.58;14.52;;;;;;;6.65;100.00;102438.97;5038603;28;20032;-43
2022/11/13 04:56:06;;;;;;;23.08;14.10;;;;;;;6.65;100.00;102438.97;5030350;28;20809;-42
2022/11/13 04:58:31;;;;;;;20.98;13.82;;;;;;;6.62;100.00;102433.88;5044821;28;20509;-43
2022/11/13 05:00:57;;;;;;;25.70;13.85;;;;;;;6.53;100.00;102442.56;5044332;28;20460;-43
2022/11/13 05:03:22;;;;;;;26.10;14.27;;;;;;;6.48;100.00;102439.44;5048481;28;20048;-43
2022/11/13 05:05:47;;;;;;;26.55;14.00;;;;;;;6.40;100.00;102439.13;5039959;28;20044;-43
2022/11/13 05:08:13;;;;;;;20.98;13.98;;;;;;;6.36;100.00;102442.03;5032720;28;20033;-42
2022/11/13 05:10:38;;;;;;;23.75;13.57;;;;;;;6.36;100.00;102434.00;5038717;28;20032;-43
2022/11/13 05:13:04;;;;;;;25.23;14.75;;;;;;;6.32;100.00;102429.88;5047971;28;20519;-43
2022/11/13 05:15:29;;;;;;;24.50;14.90;;;;;;;6.29;100.00;102430.13;5036647;28;20256;-42
2022/11/13 05:17:55;;;;;;;23.58;14.07;;;;;;;6.28;100.00;102436.41;5043711;28;20395;-43
2022/11/13 05:20:21;;;;;;;22.23;14.13;;;;;;;6.26;100.00;102435.66;5043913;28;20029;-42
2022/11/13 05:22:46;;;;;;;26.77;14.30;;;;;;;6.29;100.00;102435.47;5051372;28;20028;-42
2022/11/13 05:25:11;;;;;;;24.48;13.93;;;;;;;6.38;100.00;102432.06;5036954;28;20037;-43
2022/11/13 05:27:36;;;;;;;25.80;14.48;;;;;;;6.39;100.00;102427.56;5034227;28;20039;-42
2022/11/13 05:30:03;;;;;;;26.48;14.30;;;;;;;6.43;100.00;102429.06;5049705;28;20112;-43
2022/11/13 05:32:28;;;;;;;25.60;13.27;;;;;;;6.45;100.00;102424.47;5051191;28;20029;-42
2022/11/13 05:34:53;;;;;;;22.15;13.80;;;;;;;6.51;100.00;102420.47;5051241;28;20387;-43
2022/11/13 05:37:19;;;;;;;21.75;13.20;;;;;;;6.48;100.00;102415.34;5051344;28;20104;-42
2022/11/13 05:39:44;;;;;;;22.20;13.63;;;;;;;6.40;100.00;102417.72;5043792;28;20115;-43
2022/11/13 05:42:09;;;;;;;26.25;14.05;;;;;;;6.32;100.00;102416.50;5042451;28;20052;-42
2022/11/13 05:44:35;;;;;;;23.80;13.07;;;;;;;6.24;100.00;102405.53;5051353;28;20020;-42
2022/11/13 05:47:00;;;;;;;22.35;13.85;;;;;;;6.26;100.00;102411.59;5050431;28;20340;-43
2022/11/13 05:49:25;;;;;;;21.25;12.85;;;;;;;6.27;100.00;102407.97;5045187;28;20087;-42
2022/11/13 05:51:53;;;;;;;25.88;13.93;;;;;;;6.33;100.00;102410.19;5034697;28;20034;-42
2022/11/13 05:54:18;;;;;;;23.45;13.68;;;;;;;6.35;100.00;102402.06;5043907;28;20025;-42
2022/11/13 05:56:43;;;;;;;19.63;12.52;;;;;;;6.27;100.00;102399.97;5032543;28;20026;-43
2022/11/13 05:59:09;;;;;;;32.30;14.57;;;;;;;6.25;100.00;102383.16;5036643;28;20104;-44
2022/11/13 06:01:36;;;;;;;26.85;14.35;;;;;;;6.23;100.00;102392.28;5045844;28;20030;-42
2022/11/13 06:04:02;;;;;;;23.77;13.15;;;;;;;6.18;100.00;102387.25;5029706;28;20028;-43
2022/11/13 06:06:29;;;;;;;23.33;13.50;;;;;;;6.15;100.00;102387.50;5045881;28;20033;-42
2022/11/13 06:08:55;;;;;;;24.85;14.27;;;;;;;6.08;100.00;102388.91;5045323;28;20045;-44
2022/11/13 06:11:25;;;;;;;25.33;14.10;;;;;;;6.07;100.00;102392.56;5020677;28;20097;-42
2022/11/13 06:13:52;;;;;;;23.13;14.35;;;;;;;6.01;100.00;102383.19;5037884;28;20057;-43
2022/11/13 06:16:29;;;;;;;22.35;13.65;;;;;;;5.96;100.00;102379.16;5042093;28;20054;-43
2022/11/13 06:18:56;;;;;;;21.02;12.98;;;;;;;5.98;100.00;102377.19;5032097;28;20025;-43
2022/11/13 06:21:23;;;;;;;21.80;12.90;;;;;;;6.03;100.00;102369.69;5024080;28;20167;-43
2022/11/13 06:23:48;;;;;;;22.40;13.57;;;;;;;6.09;100.00;102366.59;5031296;28;20025;-43
2022/11/13 06:26:19;;;;;;;25.30;12.35;;;;;;;6.08;100.00;102370.22;5036999;28;20351;-43
2022/11/13 06:28:45;;;;;;;25.10;13.18;;;;;;;6.07;100.00;102372.03;5037834;28;20115;-43
2022/11/13 06:31:15;;;;;;;22.17;12.65;;;;;;;6.10;100.00;102365.59;5035639;28;20086;-43
2022/11/13 06:33:41;;;;;;;22.23;12.35;;;;;;;6.08;100.00;102365.75;5039998;28;20043;-44
2022/11/13 06:36:10;;;;;;;23.30;13.63;;;;;;;6.07;100.00;102371.19;5039061;28;20025;-43
2022/11/13 06:38:37;;;;;;;21.73;13.15;;;;;;;6.06;100.00;102370.34;5041007;28;20463;-44
2022/11/13 06:41:03;;;;;;;24.05;13.43;;;;;;;6.10;100.00;102381.66;5042457;28;20024;-43
2022/11/13 06:43:29;;;;;;;20.88;13.30;;;;;;;6.13;100.00;102376.94;5035361;28;20494;-43
2022/11/13 06:45:56;;;;;;;21.38;13.88;;;;;;;6.20;100.00;102381.81;5033815;28;20115;-42
2022/11/13 06:48:21;;;;;;;21.67;13.27;;;;;;;6.23;100.00;102371.72;5036421;28;20098;-43
2022/11/13 06:50:47;;;;;;;22.45;13.60;;;;;;;6.26;100.00;102374.16;5038279;28;20029;-43
2022/11/13 06:53:14;;;;;;;21.75;13.57;;;;;;;6.26;100.00;102371.50;5040335;28;20029;-43
2022/11/13 06:55:47;;;;;;;23.40;12.60;;;;;;;6.29;100.00;102370.41;5041972;28;20060;-42
2022/11/13 06:58:13;;;;;;;22.77;13.02;;;;;;;6.31;100.00;102366.66;5039347;28;20032;-43
2022/11/13 07:00:39;;;;;;;26.83;13.23;;;;;;;6.31;100.00;102363.97;5033732;28;20032;-43
2022/11/13 07:03:04;;;;;;;23.88;12.50;;;;;;;6.29;100.00;102360.59;5037184;28;20116;-43
2022/11/13 07:05:30;;;;;;;20.88;13.32;;;;;;;6.28;100.00;102364.22;5040143;28;20132;-43
2022/11/13 07:07:55;;;;;;;21.42;12.57;;;;;;;6.30;100.00;102358.75;5030735;28;20041;-42
2022/11/13 07:10:20;;;;;;;19.98;12.20;;;;;;;6.32;100.00;102359.50;5027283;28;20033;-43
2022/11/13 07:12:46;;;;;;;22.60;12.93;;;;;;;6.33;100.00;102359.38;5033217;28;20444;-43
2022/11/13 07:15:11;;;;;;;20.60;13.32;;;;;;;6.38;100.00;102349.19;5032150;28;20383;-43
2022/11/13 07:17:36;;;;;;;21.23;12.77;;;;;;;6.43;100.00;102353.34;5029842;28;20471;-43
2022/11/13 07:20:02;;;;;;;23.83;12.93;;;;;;;6.49;100.00;102355.53;5037267;28;20108;-43
2022/11/13 07:22:29;;;;;;;20.02;12.45;;;;;;;6.54;100.00;102351.53;5020953;28;21007;-42
2022/11/13 07:24:55;;;;;;;19.88;12.50;;;;;;;6.61;100.00;102335.88;5031408;28;20037;-43
2022/11/13 07:27:20;;;;;;;21.23;12.43;;;;;;;6.69;100.00;102344.13;5037370;28;20035;-43
2022/11/13 07:29:45;;;;;;;25.55;13.48;;;;;;;6.73;100.00;102336.72;5042597;28;20407;-43
2022/11/13 07:32:10;;;;;;;22.67;13.07;;;;;;;6.82;100.00;102336.84;5028425;28;20028;-43
2022/11/13 07:34:36;;;;;;;19.63;12.45;;;;;;;6.92;100.00;102336.97;5037383;28;20044;-42
2022/11/13 07:37:01;;;;;;;19.90;12.32;;;;;;;7.00;100.00;102345.25;5033026;28;20392;-43
2022/11/13 07:39:27;;;;;;;24.20;12.73;;;;;;;7.09;100.00;102332.13;5035676;28;20029;-43
2022/11/13 07:41:52;;;;;;;25.85;12.45;;;;;;;7.36;100.00;102345.09;5036616;28;20495;-43
2022/11/13 07:44:17;;;;;;;17.65;10.95;;;;;;;7.73;100.00;102329.53;5035266;28;20674;-42
2022/11/13 07:46:43;;;;;;;22.27;11.82;;;;;;;8.34;100.00;102334.25;5036456;28;20090;-43
2022/11/13 07:49:08;;;;;;;19.33;11.00;;;;;;;8.91;100.00;102324.03;5037353;28;20025;-43
2022/11/13 07:51:33;;;;;;;18.23;10.57;;;;;;;9.19;100.00;102312.56;5045739;28;20108;-42
2022/11/13 07:53:59;;;;;;;14.52;9.48;;;;;;;9.58;100.00;102312.63;5038750;28;20063;-42
2022/11/13 07:56:24;;;;;;;17.77;9.52;;;;;;;10.07;100.00;102312.66;5038028;28;20053;-42
2022/11/13 07:58:50;;;;;;;13.90;8.80;;;;;;;10.92;94.74;102313.59;5033379;28;20111;-42
2022/11/13 08:01:15;;;;;;;17.10;8.95;;;;;;;11.34;89.49;102319.34;5037020;28;20029;-43
2022/11/13 08:03:40;;;;;;;15.95;8.98;;;;;;;12.17;87.30;102311.09;5032201;28;20030;-43
2022/11/13 08:06:06;;;;;;;14.65;8.48;;;;;;;13.08;79.84;102312.47;5039611;28;20115;-43
2022/11/13 08:08:33;;;;;;;12.02;8.32;;;;;;;13.61;77.09;102305.91;5046333;28;20069;-43
2022/11/13 08:11:02;;;;;;;13.38;8.35;;;;;;;14.11;74.01;102312.22;5029604;28;20021;-44
2022/11/13 08:13:28;;;;;;;10.18;7.53;;;;;;;14.28;69.05;102309.34;5037851;28;20052;-44
2022/11/13 08:15:53;;;;;;;14.68;7.55;;;;;;;14.82;66.48;102313.34;5028124;28;20052;-44
2022/11/13 08:18:18;;;;;;;11.13;7.57;;;;;;;15.39;61.30;102317.69;5036728;28;20029;-44
2022/11/13 08:20:44;;;;;;;11.23;7.28;;;;;;;16.05;59.82;102315.41;5027328;28;20034;-44
2022/11/13 08:23:09;;;;;;;11.63;7.05;;;;;;;16.55;59.17;102319.38;5032738;28;20112;-44
2022/11/13 08:25:34;;;;;;;11.52;7.25;;;;;;;16.44;55.33;102317.94;5030914;28;20108;-44
2022/11/13 08:28:00;;;;;;;13.90;7.85;;;;;;;16.96;55.75;102316.25;5036865;28;20057;-44
2022/11/13 08:30:26;;;;;;;12.23;7.53;;;;;;;17.43;53.04;102317.66;5037312;28;20029;-43
2022/11/13 08:32:52;;;;;;;13.73;7.07;;;;;;;17.21;53.93;102320.31;5041920;28;20659;-44
2022/11/13 08:35:18;;;;;;;10.60;7.00;;;;;;;17.00;52.65;102307.50;5030462;28;20304;-43
2022/11/13 08:37:43;;;;;;;10.73;7.32;;;;;;;17.01;50.81;102302.88;5030123;28;20420;-43
2022/11/13 08:40:09;;;;;;;8.82;6.85;;;;;;;16.84;50.80;102303.09;5028780;28;20112;-43
2022/11/13 08:42:34;;;;;;;11.90;7.07;;;;;;;17.00;51.06;102304.78;5034282;28;20025;-43
2022/11/13 08:45:00;;;;;;;9.07;6.28;;;;;;;17.21;52.12;102300.44;5037461;28;20171;-44
2022/11/13 08:47:27;;;;;;;7.78;6.28;;;;;;;17.48;50.14;102294.28;5029856;28;20061;-43
2022/11/13 08:49:53;;;;;;;8.90;6.47;;;;;;;16.70;50.15;102303.91;5032423;28;20029;-43
2022/11/13 08:52:19;;;;;;;12.13;7.00;;;;;;;15.94;51.87;102300.38;5032851;28;20344;-44
2022/11/13 08:54:44;;;;;;;10.70;6.65;;;;;;;15.65;53.07;102301.09;5033703;28;20095;-44
2022/11/13 08:57:09;;;;;;;10.65;6.75;;;;;;;15.04;53.65;102295.47;5033123;28;20074;-43
2022/11/13 08:59:35;;;;;;;10.38;7.30;;;;;;;14.58;55.87;102284.44;5035570;28;20029;-44
2022/11/13 09:02:00;;;;;;;10.32;6.97;;;;;;;14.64;56.66;102273.75;5031063;28;20210;-43
2022/11/13 09:04:25;;;;;;;15.73;7.55;;;;;;;14.79;56.11;102278.44;5042517;28;20057;-41
2022/11/13 09:06:51;;;;;;;10.50;7.18;;;;;;;15.05;56.17;102283.59;5033217;28;20458;-41
2022/11/13 09:09:18;;;;;;;11.88;7.43;;;;;;;14.44;57.11;102281.38;5046988;28;20044;-44
2022/11/13 09:11:43;;;;;;;13.68;7.43;;;;;;;14.65;57.86;102277.31;5051135;28;20033;-44
2022/11/13 09:14:09;;;;;;;10.63;6.93;;;;;;;14.71;57.74;102273.91;5030961;28;20403;-43
2022/11/13 09:16:34;;;;;;;12.65;6.78;;;;;;;14.87;58.82;102279.25;5033723;28;20375;-42
2022/11/13 09:18:59;;;;;;;11.85;7.13;;;;;;;14.80;56.83;102272.03;5033861;28;20074;-42
2022/11/13 09:21:25;;;;;;;11.45;7.32;;;;;;;14.17;58.50;102269.09;5050296;28;20025;-41
2022/11/13 09:23:50;;;;;;;10.05;7.40;;;;;;;13.68;60.69;102263.66;5043360;28;20021;-41
2022/11/13 09:26:16;;;;;;;8.90;7.05;;;;;;;13.52;62.17;102259.06;5029187;28;20041;-41
2022/11/13 09:28:41;;;;;;;12.80;7.50;;;;;;;13.22;63.12;102260.50;5041588;28;20033;-42
2022/11/13 09:31:07;;;;;;;11.98;8.52;;;;;;;13.23;64.26;102251.38;5037334;28;20044;-43
2022/11/13 09:33:33;;;;;;;11.43;7.18;;;;;;;13.93;62.70;102255.53;5038473;28;20021;-41
2022/11/13 09:35:58;;;;;;;10.60;7.25;;;;;;;13.81;62.75;102253.19;5036529;28;20097;-41
2022/11/13 09:38:23;;;;;;;14.63;7.40;;;;;;;13.69;62.68;102254.56;5037053;28;20041;-41
2022/11/13 09:41:05;;;;;;;12.13;7.78;;;;;;;13.83;63.44;102250.31;5035941;28;20379;-42
2022/11/13 09:43:44;;;;;;;10.02;6.90;;;;;;;14.10;63.76;102257.22;5043102;28;20069;-42
2022/11/13 09:46:34;;;;;;;10.77;7.18;;;;;;;14.46;62.61;102251.44;5042713;28;20092;-42
2022/11/13 09:49:05;;;;;;;10.00;7.80;;;;;;;14.75;61.68;102245.44;5039962;28;20040;-42
2022/11/13 09:51:35;;;;;;;10.10;7.35;;;;;;;15.38;60.51;102254.44;5031538;28;20076;-42
2022/11/13 09:54:04;;;;;;;10.18;7.30;;;;;;;16.39;56.59;102250.56;5032771;28;20506;-42
2022/11/13 09:56:34;;;;;;;13.68;7.22;;;;;;;17.11;54.34;102243.59;5031071;28;20737;-42
2022/11/13 09:59:12;;;;;;;12.00;7.03;;;;;;;17.10;53.03;102248.19;5041279;28;20095;-42
2022/11/13 10:02:12;;;;;;;9.75;7.10;;;;;;;16.39;54.28;102242.41;5033407;28;20037;-42
2022/11/13 10:04:49;;;;;;;9.40;7.45;;;;;;;15.07;56.77;102243.59;5038198;28;20087;-42
2022/11/13 10:07:23;;;;;;;;;;;;;;;14.68;59.27;102239.03;5031193;28;20038;-40
2022/11/13 10:10:26;;;;;;;11.57;7.45;;;;;;;14.30;59.75;102243.31;5041216;28;19960;-42
2022/11/13 10:12:53;;;;;;;10.82;7.43;;;;;;;14.59;61.72;102234.66;5041805;28;20691;-42
2022/11/13 10:15:19;;;;;;;10.07;7.43;;;;;;;14.71;60.21;102234.09;5039030;28;20144;-42
2022/11/13 10:17:51;;;;;;;8.60;7.32;;;;;;;14.59;60.88;102237.38;5045006;28;20059;-42
2022/11/13 10:20:28;;;;;;;10.77;7.28;;;;;;;14.21;61.80;102247.91;5040446;28;20075;-43
2022/11/13 10:23:12;;;;;;;11.20;7.60;;;;;;;14.09;62.90;102241.19;5040058;28;20030;-42
2022/11/13 10:25:40;;;;;;;10.43;7.32;;;;;;;14.16;63.11;102234.88;5029366;28;20120;-43
2022/11/13 10:28:10;;;;;;;;;;;;;;;14.19;62.41;102221.03;5049197;28;20103;-41
2022/11/13 10:30:36;;;;;;;9.40;6.65;;;;;;;14.49;63.39;102214.00;5037306;28;19912;-42
2022/11/13 10:33:04;;;;;;;8.90;6.80;;;;;;;14.39;62.25;102224.19;5031907;28;20039;-42
2022/11/13 10:36:05;;;;;;;9.25;6.70;;;;;;;14.02;64.20;102224.75;5034197;28;20025;-43
2022/11/13 10:38:43;;;;;;;10.90;7.40;;;;;;;14.09;63.52;102216.81;5035421;28;20052;-43
2022/11/13 10:41:16;;;;;;;9.38;6.93;;;;;;;14.28;64.11;102216.44;5036073;28;20116;-42
2022/11/13 10:43:53;;;;;;;10.18;7.32;;;;;;;14.80;62.04;102209.69;5032528;28;20037;-42
2022/11/13 10:46:24;;;;;;;9.60;6.63;;;;;;;14.98;61.00;102218.41;5031415;28;20136;-42
2022/11/13 10:48:50;;;;;;;8.35;6.53;;;;;;;15.07;61.10;102209.19;5037621;28;20029;-42
2022/11/13 10:51:24;;;;;;;10.10;6.80;;;;;;;15.33;61.25;102199.88;5041128;28;20375;-43
2022/11/13 10:53:49;;;;;;;9.93;6.95;;;;;;;15.45;59.86;102195.72;5035743;28;20483;-42
2022/11/13 10:56:33;;;;;;;7.82;6.45;;;;;;;16.36;58.13;102191.16;5033521;28;20040;-42
2022/11/13 10:59:14;;;;;;;10.55;7.28;;;;;;;16.41;56.03;102196.03;5042430;28;20087;-43
2022/11/13 11:01:40;;;;;;;11.07;6.88;;;;;;;15.70;58.26;102184.72;5042105;28;20037;-42
2022/11/13 11:04:11;;;;;;;8.70;6.68;;;;;;;15.46;58.37;102183.84;5034118;28;20032;-42
2022/11/13 11:06:38;;;;;;;10.48;6.55;;;;;;;15.81;58.07;102170.69;5031346;28;20116;-42
2022/11/13 11:09:16;;;;;;;8.73;6.45;;;;;;;16.07;57.74;102161.28;5038493;28;20025;-42
2022/11/13 11:14:56;;;;;;;11.18;7.43;;;;;;;15.60;59.16;102160.50;5035596;28;20060;-42
2022/11/13 11:17:43;;;;;;;8.55;6.65;;;;;;;16.07;58.58;102145.81;5033726;28;20128;-42
2022/11/13 11:20:39;;;;;;;8.65;6.70;;;;;;;16.32;58.03;102140.94;5033872;28;20456;-43